Time;durP1;ratioP1;P1;durP2;ratioP2;P2;SDS_P1;SDS_P2;PMS_P1;PMS_P2;Temp;Humidity;BMP_temperature;BMP_pressure;BME280_temperature;BME280_humidity;BME280_pressure;Samples;Min_cycle;Max_cycle;Signal;HPM_P1;HPM_P2
2023/12/18 00:01:06;;;;;;;135.83;69.30;;;;;;;;;;4401655;32;354080;-76
2023/12/18 00:03:33;;;;;;;134.70;72.60;;;;;;;;;;4413861;32;319839;-78
2023/12/18 00:06:00;;;;;;;133.00;73.50;;;;;;;;;;4403997;32;319426;-76
2023/12/18 00:08:27;;;;;;;142.17;75.20;;;;;;;;;;4411260;32;319632;-77
2023/12/18 00:10:58;;;;;;;155.50;76.43;;;;;;;;;;4404101;32;319636;-74
2023/12/18 00:13:26;;;;;;;87.83;48.37;;;;;;;;;;4413757;32;319734;-76
2023/12/18 00:15:52;;;;;;;80.73;43.43;;;;;;;;;;4413132;32;340993;-77
2023/12/18 00:18:19;;;;;;;66.63;38.70;;;;;;;;;;4398939;32;418223;-77
2023/12/18 00:20:46;;;;;;;67.63;35.87;;;;;;;;;;4413940;32;318423;-79
2023/12/18 00:23:13;;;;;;;64.80;34.83;;;;;;;;;;4403439;32;318409;-79
2023/12/18 00:25:40;;;;;;;75.83;35.97;;;;;;;;;;4413592;32;318550;-77
2023/12/18 00:28:08;;;;;;;67.93;32.10;;;;;;;;;;4401342;32;318585;-76
2023/12/18 00:30:35;;;;;;;65.50;32.43;;;;;;;;;;4413544;32;318551;-77
2023/12/18 00:33:02;;;;;;;52.43;28.10;;;;;;;;;;4403684;32;318516;-77
2023/12/18 00:35:29;;;;;;;45.20;26.37;;;;;;;;;;4413674;32;317891;-78
2023/12/18 00:37:56;;;;;;;48.37;26.30;;;;;;;;;;4403722;32;318522;-78
2023/12/18 00:40:23;;;;;;;39.83;23.87;;;;;;;;;;4412240;32;318617;-78
2023/12/18 00:42:50;;;;;;;53.43;27.93;;;;;;;;;;4413941;32;318459;-77
2023/12/18 00:45:18;;;;;;;53.13;29.17;;;;;;;;;;4403586;32;318415;-76
2023/12/18 00:47:45;;;;;;;63.00;30.63;;;;;;;;;;4413328;32;318516;-78
2023/12/18 00:50:12;;;;;;;63.63;31.63;;;;;;;;;;4402021;32;318514;-77
2023/12/18 00:52:39;;;;;;;299.20;142.63;;;;;;;;;;4416020;32;318426;-75
2023/12/18 00:55:08;;;;;;;144.10;77.97;;;;;;;;;;4406010;32;320717;-77
2023/12/18 00:57:35;;;;;;;129.07;62.97;;;;;;;;;;4416300;32;319469;-78
2023/12/18 01:00:02;;;;;;;106.17;53.27;;;;;;;;;;4405836;32;320237;-76
2023/12/18 01:02:30;;;;;;;78.90;42.83;;;;;;;;;;4414413;32;319537;-77
2023/12/18 01:04:57;;;;;;;67.93;35.37;;;;;;;;;;4406421;32;318399;-76
2023/12/18 01:07:24;;;;;;;80.23;39.17;;;;;;;;;;4416250;32;318370;-79
2023/12/18 01:09:56;;;;;;;74.50;41.67;;;;;;;;;;4416419;32;318571;-78
2023/12/18 01:12:23;;;;;;;72.67;41.33;;;;;;;;;;4399673;32;417670;-76
2023/12/18 01:14:50;;;;;;;77.37;42.17;;;;;;;;;;4414590;32;321315;-79
2023/12/18 01:17:16;;;;;;;84.93;46.20;;;;;;;;;;4405725;32;317691;-77
2023/12/18 01:19:45;;;;;;;71.37;42.30;;;;;;;;;;4415309;32;318930;-77
2023/12/18 01:22:12;;;;;;;74.60;42.50;;;;;;;;;;4401570;32;318686;-78
2023/12/18 01:24:39;;;;;;;79.97;40.20;;;;;;;;;;4415612;32;318464;-78
2023/12/18 01:27:06;;;;;;;71.63;41.17;;;;;;;;;;4405533;32;318437;-77
2023/12/18 01:29:33;;;;;;;70.70;40.33;;;;;;;;;;4414231;32;318594;-76
2023/12/18 01:32:00;;;;;;;74.37;42.30;;;;;;;;;;4403974;32;337644;-78
2023/12/18 01:34:26;;;;;;;66.03;35.67;;;;;;;;;;4413173;32;318638;-79
2023/12/18 01:36:55;;;;;;;57.17;32.37;;;;;;;;;;4415152;32;319073;-78
2023/12/18 01:39:22;;;;;;;61.87;33.03;;;;;;;;;;4401947;32;417338;-78
2023/12/18 01:41:49;;;;;;;56.23;30.70;;;;;;;;;;4415803;32;318641;-78
2023/12/18 01:44:16;;;;;;;52.63;30.80;;;;;;;;;;4402220;32;318519;-77
2023/12/18 01:46:43;;;;;;;66.13;34.40;;;;;;;;;;4413967;32;318750;-78
2023/12/18 01:49:13;;;;;;;90.03;45.13;;;;;;;;;;4404961;32;318556;-77
2023/12/18 01:51:40;;;;;;;103.37;49.47;;;;;;;;;;4414057;32;318310;-78
2023/12/18 01:54:09;;;;;;;109.10;47.80;;;;;;;;;;4402890;32;319395;-76
2023/12/18 01:56:37;;;;;;;120.27;54.93;;;;;;;;;;4413915;32;319505;-77
2023/12/18 01:59:04;;;;;;;147.17;55.97;;;;;;;;;;4404505;32;319764;-78
2023/12/18 02:01:32;;;;;;;122.93;55.27;;;;;;;;;;4413670;32;319463;-77
2023/12/18 02:03:59;;;;;;;121.37;52.70;;;;;;;;;;4403961;32;319181;-77
2023/12/18 02:06:27;;;;;;;142.37;48.87;;;;;;;;;;4412905;32;318825;-78
2023/12/18 02:08:54;;;;;;;98.93;44.13;;;;;;;;;;4414902;32;319417;-78
2023/12/18 02:11:24;;;;;;;114.33;47.40;;;;;;;;;;4400432;32;417472;-77
2023/12/18 02:13:51;;;;;;;97.37;45.43;;;;;;;;;;4415115;32;319328;-76
2023/12/18 02:16:18;;;;;;;100.87;45.67;;;;;;;;;;4402020;32;325009;-78
2023/12/18 02:18:45;;;;;;;92.97;45.40;;;;;;;;;;4413622;32;346290;-75
2023/12/18 02:21:13;;;;;;;89.83;45.23;;;;;;;;;;4404472;32;318558;-77
2023/12/18 02:23:41;;;;;;;109.43;49.23;;;;;;;;;;4415429;32;317727;-77
2023/12/18 02:26:08;;;;;;;106.07;49.43;;;;;;;;;;4400972;32;319387;-74
2023/12/18 02:28:35;;;;;;;90.03;44.00;;;;;;;;;;4413770;32;319437;-77
2023/12/18 02:31:04;;;;;;;100.87;44.40;;;;;;;;;;4403516;32;318403;-77
2023/12/18 02:33:31;;;;;;;93.63;42.57;;;;;;;;;;4413594;32;319541;-76
2023/12/18 02:35:58;;;;;;;87.67;41.40;;;;;;;;;;4403153;32;319061;-77
2023/12/18 02:38:25;;;;;;;77.97;39.03;;;;;;;;;;4411350;32;337643;-77
2023/12/18 02:40:53;;;;;;;73.57;37.83;;;;;;;;;;4413831;32;318575;-78
2023/12/18 02:43:20;;;;;;;80.33;36.67;;;;;;;;;;4400776;32;417551;-77
2023/12/18 02:45:47;;;;;;;76.00;39.10;;;;;;;;;;4414516;32;318190;-77
2023/12/18 02:48:16;;;;;;;72.80;38.87;;;;;;;;;;4400930;32;318394;-77
2023/12/18 02:50:43;;;;;;;76.03;35.40;;;;;;;;;;4413394;32;318508;-76
2023/12/18 02:53:10;;;;;;;79.97;35.93;;;;;;;;;;4403351;32;319095;-78
2023/12/18 02:55:37;;;;;;;76.57;35.57;;;;;;;;;;4410234;32;318994;-76
2023/12/18 02:58:05;;;;;;;71.73;33.40;;;;;;;;;;4401639;32;318760;-76
2023/12/18 03:00:32;;;;;;;67.63;35.13;;;;;;;;;;4414537;32;318442;-76
2023/12/18 03:02:59;;;;;;;71.27;32.13;;;;;;;;;;4404393;32;318788;-78
2023/12/18 03:05:26;;;;;;;73.73;33.60;;;;;;;;;;4414404;32;318701;-75
2023/12/18 03:07:53;;;;;;;56.63;30.90;;;;;;;;;;4413452;32;318435;-77
2023/12/18 03:10:20;;;;;;;63.80;32.17;;;;;;;;;;4398092;32;417380;-77
2023/12/18 03:12:47;;;;;;;59.73;30.57;;;;;;;;;;4411737;32;318314;-77
2023/12/18 03:15:15;;;;;;;63.57;28.60;;;;;;;;;;4402788;32;318418;-77
2023/12/18 03:17:42;;;;;;;54.70;29.00;;;;;;;;;;4413932;32;318717;-76
2023/12/18 03:20:10;;;;;;;61.70;27.23;;;;;;;;;;4399862;32;318456;-75
2023/12/18 03:22:37;;;;;;;54.67;27.07;;;;;;;;;;4413147;32;318498;-76
2023/12/18 03:25:05;;;;;;;51.93;28.47;;;;;;;;;;4401601;32;318122;-75
2023/12/18 03:27:32;;;;;;;68.70;33.90;;;;;;;;;;4413529;32;332351;-77
2023/12/18 03:29:59;;;;;;;87.90;46.63;;;;;;;;;;4401630;32;320661;-76
2023/12/18 03:32:27;;;;;;;104.40;48.90;;;;;;;;;;4411190;32;317773;-76
2023/12/18 03:34:54;;;;;;;109.60;51.83;;;;;;;;;;4411683;32;319810;-73
2023/12/18 03:37:21;;;;;;;110.53;51.67;;;;;;;;;;4414246;32;319472;-77
2023/12/18 03:39:48;;;;;;;105.37;48.67;;;;;;;;;;4412807;32;319284;-79
2023/12/18 03:42:15;;;;;;;107.93;50.70;;;;;;;;;;4400747;32;318654;-75
2023/12/18 03:44:46;;;;;;;113.20;51.07;;;;;;;;;;4412753;32;319879;-76
2023/12/18 03:47:13;;;;;;;104.43;46.90;;;;;;;;;;4403818;32;319418;-75
2023/12/18 03:49:42;;;;;;;109.70;49.90;;;;;;;;;;4413376;32;319731;-76
2023/12/18 03:52:08;;;;;;;90.97;43.77;;;;;;;;;;4401335;32;319497;-76
2023/12/18 03:54:35;;;;;;;85.20;44.57;;;;;;;;;;4414076;32;318401;-76
2023/12/18 03:57:02;;;;;;;88.33;42.90;;;;;;;;;;4403960;32;318451;-77
2023/12/18 03:59:29;;;;;;;88.07;43.10;;;;;;;;;;4413759;32;318845;-76
2023/12/18 04:01:56;;;;;;;80.77;37.53;;;;;;;;;;4403285;32;318962;-75
2023/12/18 04:04:23;;;;;;;80.70;40.03;;;;;;;;;;4411597;32;318801;-76
2023/12/18 04:06:51;;;;;;;94.90;47.33;;;;;;;;;;4412713;32;318522;-76
2023/12/18 04:09:18;;;;;;;88.67;44.43;;;;;;;;;;4403283;32;317940;-75
2023/12/18 04:11:45;;;;;;;109.67;50.97;;;;;;;;;;4413431;32;318546;-78
2023/12/18 04:14:12;;;;;;;99.97;48.90;;;;;;;;;;4401545;32;319470;-76
2023/12/18 04:16:39;;;;;;;112.00;51.50;;;;;;;;;;4413340;32;318434;-78
2023/12/18 04:19:06;;;;;;;109.40;54.07;;;;;;;;;;4401423;32;318646;-76
2023/12/18 04:21:33;;;;;;;122.40;57.73;;;;;;;;;;4412581;32;319680;-76
2023/12/18 04:24:01;;;;;;;116.93;53.47;;;;;;;;;;4402822;32;319366;-75
2023/12/18 04:26:28;;;;;;;103.03;49.93;;;;;;;;;;4414284;32;318790;-77
2023/12/18 04:28:55;;;;;;;112.90;51.43;;;;;;;;;;4406476;32;319387;-73
2023/12/18 04:31:25;;;;;;;107.60;49.40;;;;;;;;;;4415994;32;319403;-76
2023/12/18 04:33:52;;;;;;;99.50;47.30;;;;;;;;;;4415744;32;319613;-79
2023/12/18 04:36:19;;;;;;;94.07;43.83;;;;;;;;;;4399907;32;418963;-76
2023/12/18 04:38:47;;;;;;;88.37;43.60;;;;;;;;;;4414971;32;317708;-75
2023/12/18 04:41:22;;;;;;;77.00;37.83;;;;;;;;;;4406336;32;318285;-76
2023/12/18 04:43:50;;;;;;;78.80;40.47;;;;;;;;;;4415010;32;318672;-74
2023/12/18 04:46:17;;;;;;;77.60;40.37;;;;;;;;;;4403641;32;317746;-75
2023/12/18 04:48:44;;;;;;;56.60;28.67;;;;;;;;;;4415921;32;318388;-76
2023/12/18 04:51:11;;;;;;;53.77;27.80;;;;;;;;;;4405532;32;318591;-77
2023/12/18 04:53:38;;;;;;;60.30;29.33;;;;;;;;;;4416295;32;318381;-76
2023/12/18 04:56:05;;;;;;;68.40;29.83;;;;;;;;;;4404213;32;318606;-74
2023/12/18 04:58:35;;;;;;;61.07;30.87;;;;;;;;;;4416355;32;318779;-75
2023/12/18 05:01:03;;;;;;;70.20;30.97;;;;;;;;;;4406173;32;318645;-76
2023/12/18 05:03:30;;;;;;;79.50;34.13;;;;;;;;;;4415096;32;352183;-77
2023/12/18 05:05:57;;;;;;;80.10;37.80;;;;;;;;;;4403361;32;401409;-77
2023/12/18 05:08:24;;;;;;;78.50;37.83;;;;;;;;;;4413874;32;319112;-77
2023/12/18 05:10:51;;;;;;;78.90;39.27;;;;;;;;;;4415920;32;318340;-78
2023/12/18 05:13:18;;;;;;;92.23;39.63;;;;;;;;;;4405791;32;318603;-78
2023/12/18 05:15:46;;;;;;;92.73;44.80;;;;;;;;;;4415673;32;318689;-77
2023/12/18 05:18:13;;;;;;;101.63;43.27;;;;;;;;;;4403406;32;318591;-76
2023/12/18 05:20:41;;;;;;;81.47;39.90;;;;;;;;;;4414594;32;319475;-77
2023/12/18 05:23:08;;;;;;;81.77;38.60;;;;;;;;;;4405833;32;318414;-76
2023/12/18 05:25:35;;;;;;;86.60;41.37;;;;;;;;;;4415555;32;317825;-76
2023/12/18 05:28:02;;;;;;;87.03;40.90;;;;;;;;;;4405351;32;317879;-74
2023/12/18 05:30:28;;;;;;;88.30;39.93;;;;;;;;;;4413417;32;318507;-76
2023/12/18 05:32:57;;;;;;;87.40;39.80;;;;;;;;;;4405313;32;317987;-74
2023/12/18 05:35:24;;;;;;;80.33;41.80;;;;;;;;;;4415028;32;318568;-75
2023/12/18 05:37:51;;;;;;;78.97;39.50;;;;;;;;;;4415023;32;318514;-75
2023/12/18 05:40:18;;;;;;;75.10;36.07;;;;;;;;;;4402883;32;318403;-78
2023/12/18 05:42:45;;;;;;;74.03;36.37;;;;;;;;;;4415281;32;318350;-73
2023/12/18 05:45:12;;;;;;;70.33;33.80;;;;;;;;;;4405159;32;318442;-76
2023/12/18 05:47:39;;;;;;;64.07;34.57;;;;;;;;;;4414458;32;317458;-76
2023/12/18 05:50:08;;;;;;;61.73;33.73;;;;;;;;;;4404258;32;318662;-74
2023/12/18 05:52:35;;;;;;;77.07;35.97;;;;;;;;;;4413399;32;360542;-75
2023/12/18 05:55:02;;;;;;;67.60;34.23;;;;;;;;;;4404938;32;322779;-75
2023/12/18 05:57:29;;;;;;;73.60;35.87;;;;;;;;;;4413065;32;323375;-75
2023/12/18 05:59:56;;;;;;;76.00;36.67;;;;;;;;;;4404283;32;337974;-74
2023/12/18 06:02:23;;;;;;;79.27;41.10;;;;;;;;;;4412100;32;318410;-75
2023/12/18 06:04:50;;;;;;;84.60;38.97;;;;;;;;;;4414703;32;318445;-75
2023/12/18 06:07:19;;;;;;;70.50;36.47;;;;;;;;;;4403418;32;318408;-76
2023/12/18 06:09:45;;;;;;;69.37;35.37;;;;;;;;;;4414710;32;318454;-75
2023/12/18 06:12:12;;;;;;;69.83;36.43;;;;;;;;;;4402131;32;318398;-74
2023/12/18 06:14:39;;;;;;;68.10;37.87;;;;;;;;;;4414367;32;318608;-76
2023/12/18 06:17:07;;;;;;;69.73;37.93;;;;;;;;;;4403306;32;318416;-75
2023/12/18 06:19:34;;;;;;;150.90;78.47;;;;;;;;;;4414553;32;318518;-76
2023/12/18 06:22:01;;;;;;;120.87;63.63;;;;;;;;;;4403470;32;319483;-74
2023/12/18 06:24:30;;;;;;;77.33;40.10;;;;;;;;;;4413727;32;319504;-76
2023/12/18 06:26:57;;;;;;;73.63;40.10;;;;;;;;;;4403813;32;318530;-74
2023/12/18 06:29:27;;;;;;;58.37;32.53;;;;;;;;;;4414400;32;318386;-77
2023/12/18 06:31:54;;;;;;;57.30;29.30;;;;;;;;;;4414566;32;318872;-78
2023/12/18 06:34:21;;;;;;;68.33;32.20;;;;;;;;;;4399238;32;415959;-77
2023/12/18 06:36:48;;;;;;;61.43;34.43;;;;;;;;;;4416724;32;318476;-76
2023/12/18 06:39:14;;;;;;;58.67;30.77;;;;;;;;;;4404781;32;318631;-76
2023/12/18 06:41:42;;;;;;;52.53;29.80;;;;;;;;;;4413073;32;355171;-74
2023/12/18 06:44:09;;;;;;;59.83;32.70;;;;;;;;;;4400844;32;318572;-75
2023/12/18 06:46:36;;;;;;;65.47;32.07;;;;;;;;;;4413159;32;319109;-75
2023/12/18 06:49:03;;;;;;;64.53;33.23;;;;;;;;;;4402541;32;319017;-74
2023/12/18 06:51:30;;;;;;;74.20;40.37;;;;;;;;;;4413087;32;318615;-76
2023/12/18 06:53:57;;;;;;;59.37;34.77;;;;;;;;;;4403068;32;318542;-75
2023/12/18 06:56:24;;;;;;;56.50;34.93;;;;;;;;;;4410557;32;318458;-75
2023/12/18 06:58:52;;;;;;;64.70;33.30;;;;;;;;;;4414102;32;317758;-76
2023/12/18 07:01:19;;;;;;;61.87;33.03;;;;;;;;;;4399970;32;420056;-79
2023/12/18 07:03:46;;;;;;;61.97;32.83;;;;;;;;;;4412442;32;317786;-74
2023/12/18 07:06:13;;;;;;;56.33;28.53;;;;;;;;;;4401348;32;344401;-78
2023/12/18 07:08:40;;;;;;;54.13;30.37;;;;;;;;;;4413971;32;318094;-76
2023/12/18 07:11:07;;;;;;;55.00;32.90;;;;;;;;;;4403921;32;319469;-74
2023/12/18 07:13:34;;;;;;;62.53;34.63;;;;;;;;;;4413572;32;318449;-77
2023/12/18 07:16:02;;;;;;;57.30;30.37;;;;;;;;;;4403911;32;318723;-77
2023/12/18 07:18:29;;;;;;;58.80;33.13;;;;;;;;;;4412076;32;318982;-76
2023/12/18 07:20:56;;;;;;;60.47;32.27;;;;;;;;;;4402480;32;361608;-74
2023/12/18 07:23:23;;;;;;;68.07;38.70;;;;;;;;;;4414112;32;318516;-74
2023/12/18 07:25:50;;;;;;;62.53;36.77;;;;;;;;;;4413972;32;318989;-76
2023/12/18 07:28:17;;;;;;;61.53;32.37;;;;;;;;;;4402273;32;318886;-75
2023/12/18 07:30:44;;;;;;;67.67;33.07;;;;;;;;;;4413909;32;318366;-77
2023/12/18 07:33:12;;;;;;;58.00;31.37;;;;;;;;;;4403819;32;318459;-76
2023/12/18 07:35:39;;;;;;;66.83;35.20;;;;;;;;;;4413733;32;319024;-77
2023/12/18 07:38:06;;;;;;;76.23;43.20;;;;;;;;;;4400719;32;318848;-75
2023/12/18 07:40:33;;;;;;;74.00;40.17;;;;;;;;;;4411681;32;326228;-75
2023/12/18 07:43:00;;;;;;;111.80;60.93;;;;;;;;;;4402833;32;318180;-77
2023/12/18 07:45:29;;;;;;;91.73;46.10;;;;;;;;;;4412868;32;320222;-75
2023/12/18 07:47:56;;;;;;;93.20;50.30;;;;;;;;;;4402886;32;318806;-74
2023/12/18 07:50:25;;;;;;;81.03;42.80;;;;;;;;;;4410313;32;318915;-75
2023/12/18 07:52:52;;;;;;;79.60;44.63;;;;;;;;;;4413628;32;318570;-76
2023/12/18 07:55:19;;;;;;;87.33;48.07;;;;;;;;;;4403432;32;318970;-76
2023/12/18 07:57:46;;;;;;;91.60;48.27;;;;;;;;;;4413455;32;318691;-76
2023/12/18 08:00:14;;;;;;;88.43;50.33;;;;;;;;;;4403209;32;318566;-76
2023/12/18 08:02:41;;;;;;;95.73;52.50;;;;;;;;;;4416753;32;318712;-78
2023/12/18 08:05:08;;;;;;;89.30;52.00;;;;;;;;;;4406187;32;318689;-76
2023/12/18 08:07:37;;;;;;;83.67;42.53;;;;;;;;;;4416697;32;318650;-78
2023/12/18 08:10:04;;;;;;;77.80;41.07;;;;;;;;;;4405628;32;318703;-77
2023/12/18 08:12:31;;;;;;;64.80;37.97;;;;;;;;;;4416329;32;318490;-78
2023/12/18 08:14:57;;;;;;;71.27;38.43;;;;;;;;;;4406265;32;318765;-74
2023/12/18 08:17:24;;;;;;;69.57;36.23;;;;;;;;;;4415274;32;318480;-76
2023/12/18 08:19:51;;;;;;;69.67;38.33;;;;;;;;;;4415290;32;318842;-77
2023/12/18 08:22:18;;;;;;;71.27;40.50;;;;;;;;;;4403615;32;319062;-77
2023/12/18 08:24:47;;;;;;;68.03;39.90;;;;;;;;;;4415459;32;318784;-77
2023/12/18 08:27:14;;;;;;;85.83;46.37;;;;;;;;;;4405500;32;318616;-77
2023/12/18 08:29:41;;;;;;;88.43;47.93;;;;;;;;;;4413909;32;318812;-76
2023/12/18 08:32:10;;;;;;;92.47;51.53;;;;;;;;;;4403228;32;319090;-75
2023/12/18 08:34:37;;;;;;;93.47;51.80;;;;;;;;;;4414101;32;333984;-77
2023/12/18 08:37:06;;;;;;;82.87;49.90;;;;;;;;;;4406300;32;318646;-78
2023/12/18 08:39:32;;;;;;;82.07;47.67;;;;;;;;;;4415084;32;318712;-76
2023/12/18 08:42:02;;;;;;;81.20;47.70;;;;;;;;;;4404742;32;319125;-77
2023/12/18 08:44:29;;;;;;;94.03;52.27;;;;;;;;;;4412955;32;349037;-77
2023/12/18 08:46:57;;;;;;;96.27;52.93;;;;;;;;;;4405689;32;319060;-75
2023/12/18 08:49:24;;;;;;;92.90;50.70;;;;;;;;;;4415763;32;318280;-77
2023/12/18 08:51:51;;;;;;;89.23;52.87;;;;;;;;;;4415382;32;318279;-77
2023/12/18 08:54:18;;;;;;;97.50;55.37;;;;;;;;;;4403094;32;319323;-77
2023/12/18 08:56:46;;;;;;;111.70;63.30;;;;;;;;;;4415356;32;319145;-77
2023/12/18 08:59:14;;;;;;;96.57;54.20;;;;;;;;;;4405993;32;320015;-77
2023/12/18 09:01:41;;;;;;;94.23;53.63;;;;;;;;;;4418509;32;318891;-77
2023/12/18 09:04:08;;;;;;;93.10;50.40;;;;;;;;;;4401528;32;318645;-76
2023/12/18 09:06:36;;;;;;;99.53;51.13;;;;;;;;;;4415660;32;333654;-76
2023/12/18 09:09:04;;;;;;;98.33;54.60;;;;;;;;;;4404651;32;318633;-76
2023/12/18 09:11:33;;;;;;;103.20;55.27;;;;;;;;;;4414643;32;317696;-76
2023/12/18 09:14:03;;;;;;;115.73;60.77;;;;;;;;;;4405768;32;319639;-75
2023/12/18 09:16:32;;;;;;;102.27;57.40;;;;;;;;;;4415532;32;319825;-77
2023/12/18 09:18:59;;;;;;;102.27;54.90;;;;;;;;;;4405382;32;319742;-76
2023/12/18 09:21:26;;;;;;;102.43;56.20;;;;;;;;;;4415351;32;319888;-76
2023/12/18 09:23:53;;;;;;;101.40;55.77;;;;;;;;;;4415298;32;319782;-75
2023/12/18 09:26:20;;;;;;;106.73;60.63;;;;;;;;;;4399427;32;418532;-76
2023/12/18 09:28:47;;;;;;;110.53;57.77;;;;;;;;;;4415855;32;318944;-76
2023/12/18 09:31:16;;;;;;;125.27;65.57;;;;;;;;;;4405344;32;320093;-76
2023/12/18 09:33:44;;;;;;;114.37;65.17;;;;;;;;;;4414469;32;320241;-75
2023/12/18 09:36:11;;;;;;;120.03;65.07;;;;;;;;;;4402636;32;319729;-74
2023/12/18 09:38:39;;;;;;;114.80;64.80;;;;;;;;;;4415178;32;319150;-75
2023/12/18 09:41:06;;;;;;;111.80;64.57;;;;;;;;;;4404660;32;319539;-75
2023/12/18 09:43:33;;;;;;;126.43;66.60;;;;;;;;;;4414776;32;319822;-75
2023/12/18 09:46:00;;;;;;;113.23;61.93;;;;;;;;;;4404667;32;320112;-74
2023/12/18 09:48:27;;;;;;;108.70;62.60;;;;;;;;;;4413383;32;320133;-76
2023/12/18 09:50:55;;;;;;;113.67;60.97;;;;;;;;;;4414919;32;320341;-75
2023/12/18 09:53:23;;;;;;;120.40;63.20;;;;;;;;;;4398999;32;418744;-76
2023/12/18 09:55:54;;;;;;;112.73;61.70;;;;;;;;;;4413015;32;320247;-76
2023/12/18 09:58:23;;;;;;;127.43;67.57;;;;;;;;;;4397757;32;418568;-74
2023/12/18 10:00:51;;;;;;;114.40;64.37;;;;;;;;;;4413456;32;320228;-75
2023/12/18 10:03:18;;;;;;;119.10;66.87;;;;;;;;;;4404536;32;319716;-75
2023/12/18 10:05:46;;;;;;;130.43;69.13;;;;;;;;;;4413278;32;318927;-73
2023/12/18 10:08:15;;;;;;;112.53;64.30;;;;;;;;;;4404164;32;319101;-75
2023/12/18 10:10:44;;;;;;;120.63;66.50;;;;;;;;;;4414923;32;318857;-74
2023/12/18 10:13:13;;;;;;;131.43;71.53;;;;;;;;;;4406006;32;319486;-78
2023/12/18 10:15:43;;;;;;;121.63;69.60;;;;;;;;;;4417663;32;318877;-74
2023/12/18 10:18:11;;;;;;;125.57;68.17;;;;;;;;;;4399694;32;318914;-75
2023/12/18 10:20:39;;;;;;;131.40;70.57;;;;;;;;;;4413129;32;318719;-74
2023/12/18 10:23:07;;;;;;;211.10;120.80;;;;;;;;;;4402922;32;335329;-77
2023/12/18 10:25:36;;;;;;;127.40;69.73;;;;;;;;;;4413498;32;320524;-73
2023/12/18 10:28:04;;;;;;;119.87;67.20;;;;;;;;;;4403136;32;319553;-75
2023/12/18 10:30:31;;;;;;;129.60;66.77;;;;;;;;;;4414126;32;319571;-76
2023/12/18 10:32:59;;;;;;;129.13;68.33;;;;;;;;;;4403367;32;319486;-73
2023/12/18 10:35:27;;;;;;;129.53;71.17;;;;;;;;;;4413773;32;319639;-72
2023/12/18 10:37:55;;;;;;;141.17;76.50;;;;;;;;;;4412466;32;319613;-73
2023/12/18 10:40:25;;;;;;;148.50;74.97;;;;;;;;;;4392201;32;422142;-72
2023/12/18 10:43:07;;;;;;;132.63;73.30;;;;;;;;;;4412875;32;319853;-72
2023/12/18 10:45:34;;;;;;;133.00;70.50;;;;;;;;;;4399700;32;418861;-72
2023/12/18 10:48:02;;;;;;;122.70;69.63;;;;;;;;;;4402323;32;319533;-71
2023/12/18 10:50:31;;;;;;;125.73;65.90;;;;;;;;;;4411475;32;318832;-72
2023/12/18 10:53:00;;;;;;;131.60;73.03;;;;;;;;;;4403844;32;319387;-72
2023/12/18 10:55:27;;;;;;;140.07;75.50;;;;;;;;;;4413964;32;319440;-71
2023/12/18 10:58:00;;;;;;;147.83;77.57;;;;;;;;;;4412048;32;319510;-70
2023/12/18 11:00:28;;;;;;;144.10;77.10;;;;;;;;;;4410681;32;319565;-72
2023/12/18 11:02:56;;;;;;;137.23;74.20;;;;;;;;;;4404154;32;319531;-70
2023/12/18 11:05:25;;;;;;;135.13;76.00;;;;;;;;;;4413607;32;318723;-72
2023/12/18 11:07:52;;;;;;;140.13;76.47;;;;;;;;;;4412914;32;319297;-71
2023/12/18 11:10:20;;;;;;;110.60;65.00;;;;;;;;;;4401372;32;319365;-70
2023/12/18 11:12:51;;;;;;;123.17;66.83;;;;;;;;;;4412480;32;319493;-71
2023/12/18 11:15:32;;;;;;;125.73;67.83;;;;;;;;;;4402489;32;319286;-71
2023/12/18 11:18:11;;;;;;;119.57;65.63;;;;;;;;;;4403207;32;318928;-71
2023/12/18 11:20:42;;;;;;;123.33;68.27;;;;;;;;;;4413163;32;328347;-73
2023/12/18 11:23:11;;;;;;;127.43;68.07;;;;;;;;;;4402867;32;320066;-71
2023/12/18 11:25:39;;;;;;;142.77;78.50;;;;;;;;;;4412435;32;319144;-71
2023/12/18 11:28:07;;;;;;;164.97;85.40;;;;;;;;;;4400467;32;319083;-69
2023/12/18 11:30:37;;;;;;;145.63;79.90;;;;;;;;;;4412894;32;319391;-72
2023/12/18 11:33:06;;;;;;;151.73;84.67;;;;;;;;;;4403122;32;319550;-71
2023/12/18 11:35:34;;;;;;;161.13;85.40;;;;;;;;;;4412020;32;319555;-72
2023/12/18 11:38:06;;;;;;;164.67;83.33;;;;;;;;;;4403370;32;331144;-70
2023/12/18 11:40:39;;;;;;;152.37;81.80;;;;;;;;;;4413371;32;319791;-71
2023/12/18 11:43:07;;;;;;;155.67;84.00;;;;;;;;;;4403398;32;339600;-71
2023/12/18 11:45:39;;;;;;;161.57;87.10;;;;;;;;;;4413259;32;319560;-72
2023/12/18 11:48:07;;;;;;;172.67;88.13;;;;;;;;;;4400556;32;319731;-71
2023/12/18 11:50:36;;;;;;;156.60;89.17;;;;;;;;;;4417900;32;319947;-71
2023/12/18 11:53:06;;;;;;;163.17;89.67;;;;;;;;;;4402589;32;319292;-73
2023/12/18 11:55:51;;;;;;;168.33;93.97;;;;;;;;;;4413686;32;319519;-71
2023/12/18 11:58:20;;;;;;;170.87;92.53;;;;;;;;;;4397153;32;318907;-72
2023/12/18 12:00:49;;;;;;;151.90;83.47;;;;;;;;;;4412733;32;320050;-73
2023/12/18 12:03:16;;;;;;;142.27;79.73;;;;;;;;;;4403214;32;319543;-72
2023/12/18 12:05:44;;;;;;;151.33;86.37;;;;;;;;;;4413318;32;319506;-72
2023/12/18 12:08:11;;;;;;;158.93;88.13;;;;;;;;;;4400283;32;319384;-71
2023/12/18 12:10:43;;;;;;;164.43;89.63;;;;;;;;;;4413164;32;318672;-73
2023/12/18 12:13:20;;;;;;;179.50;90.47;;;;;;;;;;4402336;32;319532;-70
2023/12/18 12:15:56;;;;;;;152.57;83.57;;;;;;;;;;4412890;32;319835;-71
2023/12/18 12:18:25;;;;;;;158.10;86.00;;;;;;;;;;4397743;32;419127;-72
2023/12/18 12:20:52;;;;;;;174.10;87.27;;;;;;;;;;4411687;32;319497;-71
2023/12/18 12:23:19;;;;;;;173.23;89.90;;;;;;;;;;4403126;32;319594;-71
2023/12/18 12:25:47;;;;;;;174.40;96.90;;;;;;;;;;4412648;32;319924;-70
2023/12/18 12:28:15;;;;;;;171.53;97.00;;;;;;;;;;4401071;32;319808;-72
2023/12/18 12:30:43;;;;;;;185.97;99.13;;;;;;;;;;4413057;32;319417;-70
2023/12/18 12:33:12;;;;;;;169.57;95.30;;;;;;;;;;4402132;32;319499;-70
2023/12/18 12:35:39;;;;;;;162.00;85.40;;;;;;;;;;4413166;32;319577;-71
2023/12/18 12:38:07;;;;;;;191.60;106.13;;;;;;;;;;4401647;32;319033;-71
2023/12/18 12:40:39;;;;;;;185.33;100.67;;;;;;;;;;4413456;32;320710;-70
2023/12/18 12:43:06;;;;;;;190.63;100.63;;;;;;;;;;4402119;32;331469;-70
2023/12/18 12:45:33;;;;;;;212.53;103.83;;;;;;;;;;4414247;32;320826;-71
2023/12/18 12:48:01;;;;;;;185.57;99.80;;;;;;;;;;4403875;32;352729;-70
2023/12/18 12:50:29;;;;;;;215.93;118.00;;;;;;;;;;4412768;32;319023;-71
2023/12/18 12:52:59;;;;;;;205.73;113.30;;;;;;;;;;4400971;32;344879;-70
2023/12/18 12:55:26;;;;;;;186.70;99.67;;;;;;;;;;4421188;32;320563;-71
2023/12/18 12:57:53;;;;;;;184.50;104.20;;;;;;;;;;4415585;32;319320;-71
2023/12/18 13:00:21;;;;;;;199.67;103.73;;;;;;;;;;4403464;32;320573;-71
2023/12/18 13:02:48;;;;;;;178.50;101.83;;;;;;;;;;4415172;32;321026;-71
2023/12/18 13:05:15;;;;;;;187.13;103.33;;;;;;;;;;4404947;32;320709;-72
2023/12/18 13:07:43;;;;;;;190.13;106.23;;;;;;;;;;4414764;32;320531;-70
2023/12/18 13:10:11;;;;;;;200.80;108.87;;;;;;;;;;4403426;32;319851;-69
2023/12/18 13:12:39;;;;;;;201.33;105.73;;;;;;;;;;4416226;32;319773;-70
2023/12/18 13:15:06;;;;;;;211.83;113.20;;;;;;;;;;4405666;32;320639;-71
2023/12/18 13:17:33;;;;;;;222.40;115.80;;;;;;;;;;4415770;32;320438;-71
2023/12/18 13:20:00;;;;;;;212.73;111.57;;;;;;;;;;4398765;32;320820;-71
2023/12/18 13:22:27;;;;;;;212.60;113.63;;;;;;;;;;4424368;32;319898;-70
2023/12/18 13:24:56;;;;;;;209.57;110.00;;;;;;;;;;4415719;32;319876;-71
2023/12/18 13:27:23;;;;;;;207.77;112.40;;;;;;;;;;4401511;32;419941;-71
2023/12/18 13:29:49;;;;;;;216.77;115.33;;;;;;;;;;4414169;32;320578;-71
2023/12/18 13:32:17;;;;;;;198.07;102.73;;;;;;;;;;4402974;32;320702;-70
2023/12/18 13:34:44;;;;;;;167.87;92.77;;;;;;;;;;4414488;32;320546;-70
2023/12/18 13:37:11;;;;;;;182.73;94.07;;;;;;;;;;4403764;32;319961;-71
2023/12/18 13:39:38;;;;;;;175.03;90.27;;;;;;;;;;4414255;32;319571;-70
2023/12/18 13:42:08;;;;;;;163.40;91.27;;;;;;;;;;4403289;32;319659;-70
2023/12/18 13:44:35;;;;;;;203.97;102.23;;;;;;;;;;4414128;32;318983;-74
2023/12/18 13:47:02;;;;;;;164.73;84.13;;;;;;;;;;4403990;32;320513;-74
2023/12/18 13:49:29;;;;;;;172.60;88.30;;;;;;;;;;4413818;32;319527;-73
2023/12/18 13:51:56;;;;;;;169.50;90.03;;;;;;;;;;4404011;32;319523;-71
2023/12/18 13:54:23;;;;;;;145.13;79.30;;;;;;;;;;4412057;32;319652;-74
2023/12/18 13:56:49;;;;;;;160.60;84.83;;;;;;;;;;4412467;32;356572;-75
2023/12/18 13:59:18;;;;;;;163.83;88.23;;;;;;;;;;4405451;32;319578;-74
2023/12/18 14:01:45;;;;;;;147.13;81.27;;;;;;;;;;4413918;32;319821;-73